sensor_id;sensor_type;location;lat;lon;timestamp;pressure;altitude;pressure_sealevel;temperature;humidity
39491;BME280;25175;50.140;18.990;2022-11-15T00:02:40;98867.81;;;5.72;76.93
39491;BME280;25175;50.140;18.990;2022-11-15T00:06:03;98868.31;;;5.67;76.62
39491;BME280;25175;50.140;18.990;2022-11-15T00:09:24;98865.38;;;5.62;76.48
39491;BME280;25175;50.140;18.990;2022-11-15T00:12:44;98862.94;;;5.53;76.21
39491;BME280;25175;50.140;18.990;2022-11-15T00:16:05;98852.50;;;5.45;76.95
39491;BME280;25175;50.140;18.990;2022-11-15T00:19:25;98859.97;;;5.40;76.80
39491;BME280;25175;50.140;18.990;2022-11-15T00:22:47;98857.84;;;5.35;76.98
39491;BME280;25175;50.140;18.990;2022-11-15T00:26:11;98852.50;;;5.37;77.27
39491;BME280;25175;50.140;18.990;2022-11-15T00:29:32;98851.53;;;5.38;77.28
39491;BME280;25175;50.140;18.990;2022-11-15T00:32:53;98843.59;;;5.39;77.01
39491;BME280;25175;50.140;18.990;2022-11-15T00:36:13;98838.53;;;5.46;77.17
39491;BME280;25175;50.140;18.990;2022-11-15T00:39:35;98840.19;;;5.47;76.78
39491;BME280;25175;50.140;18.990;2022-11-15T00:42:56;98839.84;;;5.50;76.80
39491;BME280;25175;50.140;18.990;2022-11-15T00:46:17;98838.56;;;5.54;76.18
39491;BME280;25175;50.140;18.990;2022-11-15T00:49:37;98842.59;;;5.48;76.61
39491;BME280;25175;50.140;18.990;2022-11-15T00:52:57;98834.50;;;5.51;76.04
39491;BME280;25175;50.140;18.990;2022-11-15T00:56:19;98826.84;;;5.50;75.58
39491;BME280;25175;50.140;18.990;2022-11-15T00:59:40;98820.88;;;5.49;75.36
39491;BME280;25175;50.140;18.990;2022-11-15T01:03:01;98820.34;;;5.46;75.74
39491;BME280;25175;50.140;18.990;2022-11-15T01:06:21;98812.56;;;5.46;75.74
39491;BME280;25175;50.140;18.990;2022-11-15T01:09:42;98813.69;;;5.43;76.07
39491;BME280;25175;50.140;18.990;2022-11-15T01:13:03;98810.28;;;5.43;75.76
39491;BME280;25175;50.140;18.990;2022-11-15T01:16:24;98803.28;;;5.43;76.50
39491;BME280;25175;50.140;18.990;2022-11-15T01:19:44;98811.09;;;5.43;75.97
39491;BME280;25175;50.140;18.990;2022-11-15T01:23:05;98798.09;;;5.43;76.00
39491;BME280;25175;50.140;18.990;2022-11-15T01:26:25;98792.25;;;5.41;75.30
39491;BME280;25175;50.140;18.990;2022-11-15T01:29:47;98788.69;;;5.34;75.75
39491;BME280;25175;50.140;18.990;2022-11-15T01:33:08;98793.72;;;5.28;76.52
39491;BME280;25175;50.140;18.990;2022-11-15T01:36:28;98794.69;;;5.19;76.32
39491;BME280;25175;50.140;18.990;2022-11-15T01:39:48;98785.09;;;5.19;76.52
39491;BME280;25175;50.140;18.990;2022-11-15T01:43:23;98789.81;;;5.16;75.57
39491;BME280;25175;50.140;18.990;2022-11-15T01:46:47;98778.94;;;5.12;76.51
39491;BME280;25175;50.140;18.990;2022-11-15T01:50:10;98778.78;;;5.14;76.11
39491;BME280;25175;50.140;18.990;2022-11-15T01:53:33;98766.59;;;5.14;76.04
39491;BME280;25175;50.140;18.990;2022-11-15T01:56:59;98773.59;;;5.14;75.98
39491;BME280;25175;50.140;18.990;2022-11-15T02:00:21;98759.78;;;5.13;76.34
39491;BME280;25175;50.140;18.990;2022-11-15T02:03:48;98756.06;;;5.08;75.89
39491;BME280;25175;50.140;18.990;2022-11-15T02:07:12;98764.44;;;4.94;75.77
39491;BME280;25175;50.140;18.990;2022-11-15T02:10:34;98758.75;;;4.90;76.24
39491;BME280;25175;50.140;18.990;2022-11-15T02:13:55;98748.69;;;4.87;76.53
39491;BME280;25175;50.140;18.990;2022-11-15T02:17:30;98746.56;;;4.91;77.00
39491;BME280;25175;50.140;18.990;2022-11-15T02:21:05;98744.81;;;4.99;77.16
39491;BME280;25175;50.140;18.990;2022-11-15T02:24:45;98736.72;;;5.02;77.08
39491;BME280;25175;50.140;18.990;2022-11-15T02:28:37;98733.63;;;4.99;76.59
39491;BME280;25175;50.140;18.990;2022-11-15T02:32:05;98726.16;;;4.96;77.49
39491;BME280;25175;50.140;18.990;2022-11-15T02:35:34;98733.78;;;4.97;76.89
39491;BME280;25175;50.140;18.990;2022-11-15T02:39:00;98729.41;;;4.98;76.31
39491;BME280;25175;50.140;18.990;2022-11-15T02:42:25;98724.38;;;4.96;76.77
39491;BME280;25175;50.140;18.990;2022-11-15T02:46:08;98726.16;;;4.88;76.76
39491;BME280;25175;50.140;18.990;2022-11-15T02:49:35;98715.94;;;4.94;76.92
39491;BME280;25175;50.140;18.990;2022-11-15T02:52:57;98700.03;;;4.89;76.65
39491;BME280;25175;50.140;18.990;2022-11-15T02:56:17;98719.00;;;4.90;76.22
39491;BME280;25175;50.140;18.990;2022-11-15T02:59:51;98706.38;;;4.87;76.13
39491;BME280;25175;50.140;18.990;2022-11-15T03:03:29;98716.09;;;4.93;76.66
39491;BME280;25175;50.140;18.990;2022-11-15T03:07:00;98704.44;;;4.97;76.81
39491;BME280;25175;50.140;18.990;2022-11-15T03:10:26;98698.91;;;4.92;75.77
39491;BME280;25175;50.140;18.990;2022-11-15T03:13:56;98690.78;;;4.87;76.16
39491;BME280;25175;50.140;18.990;2022-11-15T03:17:23;98696.13;;;4.85;76.67
39491;BME280;25175;50.140;18.990;2022-11-15T03:20:44;98693.53;;;4.93;76.76
39491;BME280;25175;50.140;18.990;2022-11-15T03:24:08;98696.31;;;4.92;75.80
39491;BME280;25175;50.140;18.990;2022-11-15T03:27:34;98687.84;;;4.90;76.39
39491;BME280;25175;50.140;18.990;2022-11-15T03:30:56;98684.28;;;4.83;75.39
39491;BME280;25175;50.140;18.990;2022-11-15T03:34:26;98679.72;;;4.77;76.09
39491;BME280;25175;50.140;18.990;2022-11-15T03:37:51;98677.75;;;4.79;75.86
39491;BME280;25175;50.140;18.990;2022-11-15T03:41:17;98673.53;;;4.78;76.24
39491;BME280;25175;50.140;18.990;2022-11-15T03:44:42;98668.69;;;4.75;75.56
39491;BME280;25175;50.140;18.990;2022-11-15T03:48:10;98664.28;;;4.75;75.98
39491;BME280;25175;50.140;18.990;2022-11-15T03:51:33;98658.75;;;4.70;75.65
39491;BME280;25175;50.140;18.990;2022-11-15T03:54:54;98650.50;;;4.67;75.57
39491;BME280;25175;50.140;18.990;2022-11-15T03:58:17;98660.72;;;4.68;75.65
39491;BME280;25175;50.140;18.990;2022-11-15T04:01:37;98651.31;;;4.67;76.18
39491;BME280;25175;50.140;18.990;2022-11-15T04:04:58;98654.06;;;4.74;75.49
39491;BME280;25175;50.140;18.990;2022-11-15T04:08:18;98646.44;;;4.64;74.64
39491;BME280;25175;50.140;18.990;2022-11-15T04:11:39;98639.78;;;4.62;75.76
39491;BME280;25175;50.140;18.990;2022-11-15T04:15:03;98646.13;;;4.67;76.48
39491;BME280;25175;50.140;18.990;2022-11-15T04:18:27;98639.94;;;4.60;75.77
39491;BME280;25175;50.140;18.990;2022-11-15T04:21:47;98629.22;;;4.55;75.76
39491;BME280;25175;50.140;18.990;2022-11-15T04:25:26;98629.56;;;4.52;76.08
39491;BME280;25175;50.140;18.990;2022-11-15T04:28:46;98630.38;;;4.61;76.16
39491;BME280;25175;50.140;18.990;2022-11-15T04:32:22;98608.97;;;4.67;75.43
39491;BME280;25175;50.140;18.990;2022-11-15T04:35:42;98612.22;;;4.69;75.60
39491;BME280;25175;50.140;18.990;2022-11-15T04:39:23;98614.50;;;4.64;74.38
39491;BME280;25175;50.140;18.990;2022-11-15T04:42:44;98603.78;;;4.59;75.23
39491;BME280;25175;50.140;18.990;2022-11-15T04:46:04;98607.69;;;4.55;75.53
39491;BME280;25175;50.140;18.990;2022-11-15T04:49:26;98620.50;;;4.56;75.64
39491;BME280;25175;50.140;18.990;2022-11-15T04:52:50;98609.94;;;4.58;74.80
39491;BME280;25175;50.140;18.990;2022-11-15T04:56:12;98606.69;;;4.56;74.78
39491;BME280;25175;50.140;18.990;2022-11-15T04:59:33;98598.25;;;4.46;75.59
39491;BME280;25175;50.140;18.990;2022-11-15T05:02:53;98596.47;;;4.46;75.54
39491;BME280;25175;50.140;18.990;2022-11-15T05:06:33;98593.22;;;4.44;74.85
39491;BME280;25175;50.140;18.990;2022-11-15T05:09:54;98592.41;;;4.44;74.77
39491;BME280;25175;50.140;18.990;2022-11-15T05:13:14;98587.22;;;4.44;75.12
39491;BME280;25175;50.140;18.990;2022-11-15T05:16:35;98585.78;;;4.41;74.88
39491;BME280;25175;50.140;18.990;2022-11-15T05:19:56;98573.44;;;4.43;74.82
39491;BME280;25175;50.140;18.990;2022-11-15T05:23:17;98576.38;;;4.48;74.70
39491;BME280;25175;50.140;18.990;2022-11-15T05:26:38;98571.66;;;4.44;74.88
39491;BME280;25175;50.140;18.990;2022-11-15T05:29:58;98568.09;;;4.45;74.78
39491;BME280;25175;50.140;18.990;2022-11-15T05:33:19;98562.91;;;4.45;74.80
39491;BME280;25175;50.140;18.990;2022-11-15T05:36:42;98559.81;;;4.49;74.77
39491;BME280;25175;50.140;18.990;2022-11-15T05:40:06;98561.47;;;4.50;75.00
39491;BME280;25175;50.140;18.990;2022-11-15T05:43:27;98549.28;;;4.51;74.89
39491;BME280;25175;50.140;18.990;2022-11-15T05:46:52;98541.03;;;4.47;74.01
39491;BME280;25175;50.140;18.990;2022-11-15T05:50:15;98545.41;;;4.47;73.92
39491;BME280;25175;50.140;18.990;2022-11-15T05:53:37;98555.47;;;4.42;73.80
39491;BME280;25175;50.140;18.990;2022-11-15T05:56:59;98547.34;;;4.37;73.92
39491;BME280;25175;50.140;18.990;2022-11-15T06:00:20;98544.91;;;4.35;74.06
39491;BME280;25175;50.140;18.990;2022-11-15T06:03:40;98560.97;;;4.31;74.14
39491;BME280;25175;50.140;18.990;2022-11-15T06:07:01;98551.22;;;4.25;74.13
39491;BME280;25175;50.140;18.990;2022-11-15T06:10:22;98548.13;;;4.21;73.57
39491;BME280;25175;50.140;18.990;2022-11-15T06:13:44;98546.34;;;4.22;74.13
39491;BME280;25175;50.140;18.990;2022-11-15T06:17:06;98549.25;;;4.19;73.66
39491;BME280;25175;50.140;18.990;2022-11-15T06:20:28;98548.13;;;4.21;74.55
39491;BME280;25175;50.140;18.990;2022-11-15T06:23:48;98560.16;;;4.22;74.22
39491;BME280;25175;50.140;18.990;2022-11-15T06:27:10;98551.22;;;4.25;74.47
39491;BME280;25175;50.140;18.990;2022-11-15T06:30:32;98541.50;;;4.27;74.04
39491;BME280;25175;50.140;18.990;2022-11-15T06:33:52;98543.13;;;4.28;74.05
39491;BME280;25175;50.140;18.990;2022-11-15T06:37:13;98549.94;;;4.29;74.36
39491;BME280;25175;50.140;18.990;2022-11-15T06:40:34;98568.06;;;4.29;74.27
39491;BME280;25175;50.140;18.990;2022-11-15T06:43:56;98567.91;;;4.30;74.37
39491;BME280;25175;50.140;18.990;2022-11-15T06:47:18;98568.91;;;4.29;74.03
39491;BME280;25175;50.140;18.990;2022-11-15T06:50:39;98563.03;;;4.27;73.83
39491;BME280;25175;50.140;18.990;2022-11-15T06:54:00;98566.16;;;4.31;74.15
39491;BME280;25175;50.140;18.990;2022-11-15T06:57:20;98559.34;;;4.38;74.88
39491;BME280;25175;50.140;18.990;2022-11-15T07:00:41;98564.88;;;4.43;73.98
39491;BME280;25175;50.140;18.990;2022-11-15T07:04:05;98564.53;;;4.46;74.31
39491;BME280;25175;50.140;18.990;2022-11-15T07:07:25;98571.84;;;4.50;74.67
39491;BME280;25175;50.140;18.990;2022-11-15T07:10:46;98564.38;;;4.55;73.90
39491;BME280;25175;50.140;18.990;2022-11-15T07:14:06;98572.16;;;4.55;74.02
39491;BME280;25175;50.140;18.990;2022-11-15T07:17:26;98569.75;;;4.54;73.45
39491;BME280;25175;50.140;18.990;2022-11-15T07:20:48;98573.13;;;4.46;74.45
39491;BME280;25175;50.140;18.990;2022-11-15T07:24:09;98571.19;;;4.48;73.50
39491;BME280;25175;50.140;18.990;2022-11-15T07:27:30;98577.97;;;4.49;73.70
39491;BME280;25175;50.140;18.990;2022-11-15T07:30:50;98562.59;;;4.48;73.90
39491;BME280;25175;50.140;18.990;2022-11-15T07:34:10;98569.56;;;4.47;74.10
39491;BME280;25175;50.140;18.990;2022-11-15T07:37:32;98582.84;;;4.44;74.51
39491;BME280;25175;50.140;18.990;2022-11-15T07:40:56;98561.63;;;4.49;74.50
39491;BME280;25175;50.140;18.990;2022-11-15T07:44:17;98565.19;;;4.56;74.32
39491;BME280;25175;50.140;18.990;2022-11-15T07:47:38;98569.25;;;4.58;74.43
39491;BME280;25175;50.140;18.990;2022-11-15T07:50:58;98565.03;;;4.57;74.38
39491;BME280;25175;50.140;18.990;2022-11-15T07:54:20;98562.44;;;4.57;74.44
39491;BME280;25175;50.140;18.990;2022-11-15T07:57:41;98565.19;;;4.56;74.17
39491;BME280;25175;50.140;18.990;2022-11-15T08:01:02;98558.22;;;4.56;74.64
39491;BME280;25175;50.140;18.990;2022-11-15T08:04:23;98554.97;;;4.54;73.56
39491;BME280;25175;50.140;18.990;2022-11-15T08:07:44;98551.41;;;4.47;73.88
39491;BME280;25175;50.140;18.990;2022-11-15T08:11:05;98548.97;;;4.38;75.02
39491;BME280;25175;50.140;18.990;2022-11-15T08:14:26;98545.41;;;4.39;75.27
39491;BME280;25175;50.140;18.990;2022-11-15T08:17:46;98545.72;;;4.44;75.55
39491;BME280;25175;50.140;18.990;2022-11-15T08:21:09;98546.06;;;4.49;76.19
39491;BME280;25175;50.140;18.990;2022-11-15T08:24:29;98537.81;;;4.61;76.07
39491;BME280;25175;50.140;18.990;2022-11-15T08:27:52;98540.53;;;4.68;75.96
39491;BME280;25175;50.140;18.990;2022-11-15T08:31:14;98539.09;;;4.73;75.35
39491;BME280;25175;50.140;18.990;2022-11-15T08:34:36;98533.91;;;4.73;75.87
39491;BME280;25175;50.140;18.990;2022-11-15T08:37:57;98541.84;;;4.72;75.83
39491;BME280;25175;50.140;18.990;2022-11-15T08:41:23;98542.81;;;4.79;75.52
39491;BME280;25175;50.140;18.990;2022-11-15T08:44:46;98550.78;;;4.85;75.30
39491;BME280;25175;50.140;18.990;2022-11-15T08:48:07;98549.66;;;4.88;75.31
39491;BME280;25175;50.140;18.990;2022-11-15T08:51:28;98545.41;;;4.95;75.13
39491;BME280;25175;50.140;18.990;2022-11-15T08:54:49;98552.22;;;4.96;75.65
39491;BME280;25175;50.140;18.990;2022-11-15T08:58:09;98547.03;;;5.04;75.78
39491;BME280;25175;50.140;18.990;2022-11-15T09:01:31;98556.75;;;5.10;75.59
39491;BME280;25175;50.140;18.990;2022-11-15T09:04:52;98549.28;;;5.15;75.49
39491;BME280;25175;50.140;18.990;2022-11-15T09:08:12;98552.34;;;5.10;74.80
39491;BME280;25175;50.140;18.990;2022-11-15T09:11:33;98535.97;;;5.10;75.40
39491;BME280;25175;50.140;18.990;2022-11-15T09:14:54;98536.94;;;5.17;76.33
39491;BME280;25175;50.140;18.990;2022-11-15T09:18:16;98537.88;;;5.24;75.63
39491;BME280;25175;50.140;18.990;2022-11-15T09:21:36;98537.06;;;5.31;76.20
39491;BME280;25175;50.140;18.990;2022-11-15T09:24:56;98521.31;;;5.33;76.21
39491;BME280;25175;50.140;18.990;2022-11-15T09:28:16;98512.88;;;5.31;76.52
39491;BME280;25175;50.140;18.990;2022-11-15T09:31:36;98510.59;;;5.36;76.34
39491;BME280;25175;50.140;18.990;2022-11-15T09:34:58;98500.00;;;5.45;76.71
39491;BME280;25175;50.140;18.990;2022-11-15T09:38:19;98491.53;;;5.51;77.21
39491;BME280;25175;50.140;18.990;2022-11-15T09:41:57;98489.06;;;5.58;77.03
39491;BME280;25175;50.140;18.990;2022-11-15T09:45:22;98494.22;;;5.66;77.57
39491;BME280;25175;50.140;18.990;2022-11-15T09:48:49;98483.13;;;5.72;77.17
39491;BME280;25175;50.140;18.990;2022-11-15T09:52:23;98484.06;;;5.79;77.34
39491;BME280;25175;50.140;18.990;2022-11-15T09:55:34;98479.16;;;5.84;77.51
39491;BME280;25175;50.140;18.990;2022-11-15T09:58:44;98465.97;;;5.93;77.30
39491;BME280;25175;50.140;18.990;2022-11-15T10:01:57;98465.59;;;5.96;76.86
39491;BME280;25175;50.140;18.990;2022-11-15T10:05:04;98466.44;;;5.97;76.09
39491;BME280;25175;50.140;18.990;2022-11-15T10:08:28;98455.03;;;5.98;76.90
39491;BME280;25175;50.140;18.990;2022-11-15T10:11:35;98450.59;;;6.06;76.70
39491;BME280;25175;50.140;18.990;2022-11-15T10:14:38;98452.94;;;6.16;77.03
39491;BME280;25175;50.140;18.990;2022-11-15T10:17:59;98452.19;;;6.30;77.70
39491;BME280;25175;50.140;18.990;2022-11-15T10:21:12;98449.09;;;6.49;78.12
39491;BME280;25175;50.140;18.990;2022-11-15T10:24:23;98443.59;;;6.66;77.50
39491;BME280;25175;50.140;18.990;2022-11-15T10:27:29;98434.91;;;6.88;77.95
39491;BME280;25175;50.140;18.990;2022-11-15T10:30:33;98440.28;;;7.01;77.21
39491;BME280;25175;50.140;18.990;2022-11-15T10:33:36;98432.41;;;7.09;76.74
39491;BME280;25175;50.140;18.990;2022-11-15T10:36:44;98423.31;;;7.20;76.47
39491;BME280;25175;50.140;18.990;2022-11-15T10:40:03;98421.94;;;7.38;76.83
39491;BME280;25175;50.140;18.990;2022-11-15T10:43:13;98413.91;;;7.54;76.37
39491;BME280;25175;50.140;18.990;2022-11-15T10:46:19;98411.16;;;7.62;75.73
39491;BME280;25175;50.140;18.990;2022-11-15T10:49:23;98410.25;;;7.70;75.60
39491;BME280;25175;50.140;18.990;2022-11-15T10:52:26;98401.34;;;7.79;75.56
39491;BME280;25175;50.140;18.990;2022-11-15T10:55:31;98402.19;;;7.86;74.65
39491;BME280;25175;50.140;18.990;2022-11-15T10:58:37;98408.69;;;7.96;75.04
39491;BME280;25175;50.140;18.990;2022-11-15T11:01:46;98398.16;;;8.04;74.51
39491;BME280;25175;50.140;18.990;2022-11-15T11:04:51;98398.66;;;8.14;74.33
39491;BME280;25175;50.140;18.990;2022-11-15T11:07:57;98402.97;;;8.22;74.10
39491;BME280;25175;50.140;18.990;2022-11-15T11:11:02;98380.09;;;8.24;73.89
39491;BME280;25175;50.140;18.990;2022-11-15T11:14:11;98396.84;;;8.36;73.91
39491;BME280;25175;50.140;18.990;2022-11-15T11:17:20;98381.25;;;8.42;74.27
39491;BME280;25175;50.140;18.990;2022-11-15T11:20:30;98378.09;;;8.53;73.77
39491;BME280;25175;50.140;18.990;2022-11-15T11:23:44;98373.94;;;8.65;73.06
39491;BME280;25175;50.140;18.990;2022-11-15T11:26:59;98375.41;;;8.74;73.03
39491;BME280;25175;50.140;18.990;2022-11-15T11:30:09;98380.72;;;8.87;73.67
39491;BME280;25175;50.140;18.990;2022-11-15T11:33:16;98377.13;;;8.95;73.22
39491;BME280;25175;50.140;18.990;2022-11-15T11:36:25;98353.25;;;9.04;72.68
39491;BME280;25175;50.140;18.990;2022-11-15T11:39:35;98355.31;;;9.15;73.51
39491;BME280;25175;50.140;18.990;2022-11-15T11:42:50;98342.69;;;9.25;72.64
39491;BME280;25175;50.140;18.990;2022-11-15T11:46:13;98343.13;;;9.35;72.58
39491;BME280;25175;50.140;18.990;2022-11-15T11:49:20;98339.31;;;9.44;72.36
39491;BME280;25175;50.140;18.990;2022-11-15T11:52:27;98331.88;;;9.48;71.87
39491;BME280;25175;50.140;18.990;2022-11-15T11:55:33;98338.50;;;9.50;71.99
39491;BME280;25175;50.140;18.990;2022-11-15T11:58:41;98321.22;;;9.49;70.76
39491;BME280;25175;50.140;18.990;2022-11-15T12:01:45;98321.63;;;9.46;71.20
39491;BME280;25175;50.140;18.990;2022-11-15T12:04:50;98314.16;;;9.43;71.36
39491;BME280;25175;50.140;18.990;2022-11-15T12:07:56;98317.19;;;9.47;71.38
39491;BME280;25175;50.140;18.990;2022-11-15T12:11:16;98319.22;;;9.45;71.63
39491;BME280;25175;50.140;18.990;2022-11-15T12:14:28;98308.34;;;9.48;71.76
39491;BME280;25175;50.140;18.990;2022-11-15T12:17:32;98300.94;;;9.51;71.85
39491;BME280;25175;50.140;18.990;2022-11-15T12:20:36;98299.72;;;9.54;71.66
39491;BME280;25175;50.140;18.990;2022-11-15T12:23:43;98295.28;;;9.54;71.06
39491;BME280;25175;50.140;18.990;2022-11-15T12:26:51;98297.31;;;9.52;71.87
39491;BME280;25175;50.140;18.990;2022-11-15T12:29:57;98297.69;;;9.49;71.10
39491;BME280;25175;50.140;18.990;2022-11-15T12:33:01;98298.88;;;9.47;71.75
39491;BME280;25175;50.140;18.990;2022-11-15T12:36:05;98288.44;;;9.47;71.73
39491;BME280;25175;50.140;18.990;2022-11-15T12:39:08;98287.63;;;9.46;72.08
39491;BME280;25175;50.140;18.990;2022-11-15T12:42:38;98287.63;;;9.46;72.01
39491;BME280;25175;50.140;18.990;2022-11-15T12:45:43;98276.16;;;9.47;72.25
39491;BME280;25175;50.140;18.990;2022-11-15T12:48:50;98277.59;;;9.50;71.78
39491;BME280;25175;50.140;18.990;2022-11-15T12:52:08;98275.38;;;9.53;71.85
39491;BME280;25175;50.140;18.990;2022-11-15T12:55:30;98269.31;;;9.53;71.65
39491;BME280;25175;50.140;18.990;2022-11-15T12:58:41;98254.44;;;9.53;71.75
39491;BME280;25175;50.140;18.990;2022-11-15T13:02:00;98255.03;;;9.55;71.52
39491;BME280;25175;50.140;18.990;2022-11-15T13:05:56;98259.66;;;9.47;71.86
39491;BME280;25175;50.140;18.990;2022-11-15T13:08:58;98254.84;;;9.44;71.54
39491;BME280;25175;50.140;18.990;2022-11-15T13:12:01;98248.41;;;9.40;71.76
39491;BME280;25175;50.140;18.990;2022-11-15T13:18:41;98249.19;;;9.34;71.60
39491;BME280;25175;50.140;18.990;2022-11-15T13:21:49;98247.41;;;9.34;71.97
39491;BME280;25175;50.140;18.990;2022-11-15T13:25:15;98244.00;;;9.40;71.80
39491;BME280;25175;50.140;18.990;2022-11-15T13:28:24;98240.56;;;9.46;71.69
39491;BME280;25175;50.140;18.990;2022-11-15T13:31:34;98241.34;;;9.47;72.32
39491;BME280;25175;50.140;18.990;2022-11-15T13:34:43;98242.97;;;9.48;72.22
39491;BME280;25175;50.140;18.990;2022-11-15T13:37:47;98232.50;;;9.48;72.51
39491;BME280;25175;50.140;18.990;2022-11-15T13:40:49;98240.38;;;9.54;72.24
39491;BME280;25175;50.140;18.990;2022-11-15T13:43:53;98228.09;;;9.55;71.62
39491;BME280;25175;50.140;18.990;2022-11-15T13:47:04;98227.91;;;9.50;71.49
39491;BME280;25175;50.140;18.990;2022-11-15T13:50:12;98217.81;;;9.47;71.90
39491;BME280;25175;50.140;18.990;2022-11-15T13:53:14;98213.59;;;9.46;72.40
39491;BME280;25175;50.140;18.990;2022-11-15T13:56:16;98211.41;;;9.43;71.99
39491;BME280;25175;50.140;18.990;2022-11-15T13:59:24;98206.75;;;9.38;71.76
39491;BME280;25175;50.140;18.990;2022-11-15T14:02:29;98206.97;;;9.37;72.39
39491;BME280;25175;50.140;18.990;2022-11-15T14:05:33;98204.78;;;9.40;72.33
39491;BME280;25175;50.140;18.990;2022-11-15T14:08:35;98208.56;;;9.44;71.65
39491;BME280;25175;50.140;18.990;2022-11-15T14:11:37;98217.22;;;9.45;71.29
39491;BME280;25175;50.140;18.990;2022-11-15T14:14:45;98209.00;;;9.41;71.76
39491;BME280;25175;50.140;18.990;2022-11-15T14:17:47;98210.00;;;9.40;71.72
39491;BME280;25175;50.140;18.990;2022-11-15T14:21:05;98201.34;;;9.40;71.66
39491;BME280;25175;50.140;18.990;2022-11-15T14:24:14;98208.97;;;9.35;71.82
39491;BME280;25175;50.140;18.990;2022-11-15T14:27:21;98194.31;;;9.34;71.85
39491;BME280;25175;50.140;18.990;2022-11-15T14:30:24;98189.28;;;9.32;71.47
39491;BME280;25175;50.140;18.990;2022-11-15T14:33:28;98179.44;;;9.28;72.24
39491;BME280;25175;50.140;18.990;2022-11-15T14:36:33;98179.22;;;9.29;71.99
39491;BME280;25175;50.140;18.990;2022-11-15T14:39:36;98179.63;;;9.33;72.40
39491;BME280;25175;50.140;18.990;2022-11-15T14:42:37;98174.00;;;9.29;72.21
39491;BME280;25175;50.140;18.990;2022-11-15T14:45:40;98158.91;;;9.25;72.63
39491;BME280;25175;50.140;18.990;2022-11-15T14:48:42;98168.75;;;9.36;71.70
39491;BME280;25175;50.140;18.990;2022-11-15T14:51:45;98163.94;;;9.39;71.80
39491;BME280;25175;50.140;18.990;2022-11-15T14:54:47;98158.50;;;9.41;71.36
39491;BME280;25175;50.140;18.990;2022-11-15T14:57:49;98153.06;;;9.42;71.58
39491;BME280;25175;50.140;18.990;2022-11-15T15:00:51;98152.47;;;9.47;71.50
39491;BME280;25175;50.140;18.990;2022-11-15T15:03:53;98143.84;;;9.46;71.19
39491;BME280;25175;50.140;18.990;2022-11-15T15:06:58;98139.38;;;9.47;71.61
39491;BME280;25175;50.140;18.990;2022-11-15T15:10:01;98136.56;;;9.42;70.63
39491;BME280;25175;50.140;18.990;2022-11-15T15:13:03;98137.00;;;9.39;71.43
39491;BME280;25175;50.140;18.990;2022-11-15T15:16:06;98130.75;;;9.40;71.57
39491;BME280;25175;50.140;18.990;2022-11-15T15:19:08;98136.19;;;9.38;71.54
39491;BME280;25175;50.140;18.990;2022-11-15T15:22:14;98134.78;;;9.36;70.86
39491;BME280;25175;50.140;18.990;2022-11-15T15:25:21;98134.19;;;9.34;70.79
39491;BME280;25175;50.140;18.990;2022-11-15T15:28:23;98144.03;;;9.32;70.81
39491;BME280;25175;50.140;18.990;2022-11-15T15:31:26;98119.91;;;9.30;70.62
39491;BME280;25175;50.140;18.990;2022-11-15T15:34:27;98137.59;;;9.28;70.45
39491;BME280;25175;50.140;18.990;2022-11-15T15:37:31;98132.56;;;9.20;70.91
39491;BME280;25175;50.140;18.990;2022-11-15T15:40:34;98130.97;;;9.12;70.84
39491;BME280;25175;50.140;18.990;2022-11-15T15:43:36;98130.34;;;9.04;71.03
39491;BME280;25175;50.140;18.990;2022-11-15T15:46:38;98129.34;;;8.98;71.33
39491;BME280;25175;50.140;18.990;2022-11-15T15:49:40;98131.16;;;8.91;70.84
39491;BME280;25175;50.140;18.990;2022-11-15T15:52:43;98129.53;;;8.84;71.41
39491;BME280;25175;50.140;18.990;2022-11-15T15:55:45;98127.72;;;8.78;71.75
39491;BME280;25175;50.140;18.990;2022-11-15T15:58:47;98130.94;;;8.80;71.26
39491;BME280;25175;50.140;18.990;2022-11-15T16:01:49;98126.72;;;8.79;72.18
39491;BME280;25175;50.140;18.990;2022-11-15T16:04:50;98136.13;;;8.73;71.89
39491;BME280;25175;50.140;18.990;2022-11-15T16:07:53;98122.47;;;8.71;71.79
39491;BME280;25175;50.140;18.990;2022-11-15T16:10:55;98118.25;;;8.70;71.68
39491;BME280;25175;50.140;18.990;2022-11-15T16:13:57;98118.25;;;8.64;71.67
39491;BME280;25175;50.140;18.990;2022-11-15T16:16:59;98110.41;;;8.64;72.17
39491;BME280;25175;50.140;18.990;2022-11-15T16:20:01;98117.03;;;8.60;71.72
39491;BME280;25175;50.140;18.990;2022-11-15T16:23:07;98127.06;;;8.50;72.56
39491;BME280;25175;50.140;18.990;2022-11-15T16:26:23;98125.44;;;8.49;72.79
39491;BME280;25175;50.140;18.990;2022-11-15T16:29:25;98131.28;;;8.51;72.63
39491;BME280;25175;50.140;18.990;2022-11-15T16:32:27;98125.88;;;8.52;72.86
39491;BME280;25175;50.140;18.990;2022-11-15T16:35:29;98125.88;;;8.52;72.83
39491;BME280;25175;50.140;18.990;2022-11-15T16:38:32;98132.66;;;8.47;72.49
39491;BME280;25175;50.140;18.990;2022-11-15T16:41:37;98121.63;;;8.45;73.31
39491;BME280;25175;50.140;18.990;2022-11-15T16:44:38;98114.16;;;8.42;73.46
39491;BME280;25175;50.140;18.990;2022-11-15T16:47:40;98112.97;;;8.44;73.38
39491;BME280;25175;50.140;18.990;2022-11-15T16:50:42;98112.38;;;8.49;73.81
39491;BME280;25175;50.140;18.990;2022-11-15T16:53:47;98114.41;;;8.53;73.18
39491;BME280;25175;50.140;18.990;2022-11-15T16:56:49;98107.00;;;8.57;73.24
39491;BME280;25175;50.140;18.990;2022-11-15T16:59:51;98103.19;;;8.59;73.38
39491;BME280;25175;50.140;18.990;2022-11-15T17:02:53;98106.56;;;8.60;73.13
39491;BME280;25175;50.140;18.990;2022-11-15T17:05:57;98104.97;;;8.59;73.12
39491;BME280;25175;50.140;18.990;2022-11-15T17:09:01;98103.00;;;8.61;73.22
39491;BME280;25175;50.140;18.990;2022-11-15T17:12:03;98099.19;;;8.63;73.28
39491;BME280;25175;50.140;18.990;2022-11-15T17:15:06;98102.56;;;8.64;73.26
39491;BME280;25175;50.140;18.990;2022-11-15T17:18:11;98085.09;;;8.58;73.29
39491;BME280;25175;50.140;18.990;2022-11-15T17:21:17;98093.75;;;8.58;73.41